createdAt,value
2023-02-02T00:01:46.643Z,49.12
2023-02-02T00:04:19.621Z,48.97
2023-02-02T00:06:47.510Z,48.84
2023-02-02T00:09:28.120Z,49.43
2023-02-02T00:11:56.506Z,49.33
2023-02-02T00:14:24.083Z,49.40
2023-02-02T00:16:57.616Z,49.49
2023-02-02T00:19:31.640Z,49.58
2023-02-02T00:21:58.733Z,49.56
2023-02-02T00:24:28.590Z,50.38
2023-02-02T00:26:58.050Z,50.03
2023-02-02T00:29:28.274Z,49.54
2023-02-02T00:31:55.802Z,49.69
2023-02-02T00:34:23.601Z,50.02
2023-02-02T00:36:51.103Z,50.04
2023-02-02T00:39:26.211Z,50.13
2023-02-02T00:41:56.071Z,50.14
2023-02-02T00:44:42.034Z,49.96
2023-02-02T00:47:09.159Z,49.94
2023-02-02T00:49:36.814Z,50.21
2023-02-02T00:52:03.881Z,49.76
2023-02-02T00:54:31.623Z,50.12
2023-02-02T00:56:58.774Z,50.19
2023-02-02T00:59:25.685Z,50.22
2023-02-02T01:01:52.769Z,50.22
2023-02-02T01:04:19.730Z,50.26
2023-02-02T01:06:46.975Z,50.24
2023-02-02T01:09:14.165Z,49.99
2023-02-02T01:11:45.579Z,50.06
2023-02-02T01:14:12.509Z,49.75
2023-02-02T01:16:39.667Z,50.13
2023-02-02T01:19:07.051Z,49.91
2023-02-02T01:21:34.008Z,49.97
2023-02-02T01:24:00.966Z,49.84
2023-02-02T01:26:28.117Z,49.84
2023-02-02T01:28:55.093Z,50.25
2023-02-02T01:31:22.449Z,50.29
2023-02-02T01:33:50.390Z,49.60
2023-02-02T01:36:20.104Z,50.10
2023-02-02T01:38:48.260Z,50.23
2023-02-02T01:41:25.066Z,49.98
2023-02-02T01:43:58.444Z,50.62
2023-02-02T01:46:32.916Z,50.68
2023-02-02T01:49:06.235Z,50.32
2023-02-02T01:51:40.514Z,49.94
2023-02-02T01:54:13.409Z,50.47
2023-02-02T01:56:49.505Z,49.89
2023-02-02T01:59:18.362Z,50.42
2023-02-02T02:01:47.780Z,50.28
2023-02-02T02:04:15.901Z,50.18
2023-02-02T02:06:45.577Z,50.01
2023-02-02T02:09:13.214Z,50.34
2023-02-02T02:11:40.780Z,50.75
2023-02-02T02:14:29.478Z,50.54
2023-02-02T02:16:56.447Z,50.38
2023-02-02T02:20:20.114Z,50.97
2023-02-02T02:23:05.801Z,50.57
2023-02-02T02:26:02.262Z,50.39
2023-02-02T02:28:47.997Z,50.14
2023-02-02T02:31:24.279Z,50.97
2023-02-02T02:33:59.413Z,50.94
2023-02-02T02:36:26.499Z,50.56
2023-02-02T02:39:08.654Z,50.89
2023-02-02T02:41:42.234Z,50.44
2023-02-02T02:44:13.181Z,50.36
2023-02-02T02:46:40.378Z,50.43
2023-02-02T02:49:11.022Z,50.44
2023-02-02T02:51:54.773Z,50.21
2023-02-02T02:54:33.306Z,50.26
2023-02-02T02:57:13.232Z,50.14
2023-02-02T02:59:55.536Z,50.41
2023-02-02T03:03:07.024Z,50.48
2023-02-02T03:06:04.108Z,50.18
2023-02-02T03:08:41.332Z,50.43
2023-02-02T03:11:11.002Z,49.91
2023-02-02T03:13:39.760Z,49.93
2023-02-02T03:16:06.927Z,50.40
2023-02-02T03:18:34.547Z,50.36
2023-02-02T03:21:01.544Z,50.00
2023-02-02T03:23:28.657Z,50.34
2023-02-02T03:25:56.455Z,50.03
2023-02-02T03:28:24.691Z,50.17
2023-02-02T03:30:53.747Z,50.38
2023-02-02T03:33:21.556Z,50.26
2023-02-02T03:35:48.568Z,50.59
2023-02-02T03:38:16.090Z,50.26
2023-02-02T03:40:43.097Z,50.00
2023-02-02T03:43:10.100Z,50.27
2023-02-02T03:45:37.417Z,50.00
2023-02-02T03:48:05.869Z,50.44
2023-02-02T03:50:33.283Z,50.64
2023-02-02T03:53:00.490Z,50.98
2023-02-02T03:55:27.513Z,50.96
2023-02-02T03:57:54.516Z,50.21
2023-02-02T04:00:22.089Z,50.72
2023-02-02T04:02:49.152Z,50.82
2023-02-02T04:05:16.206Z,50.83
2023-02-02T04:07:43.223Z,50.26
2023-02-02T04:10:10.858Z,50.91
2023-02-02T04:12:37.718Z,51.04
2023-02-02T04:15:05.256Z,51.18
2023-02-02T04:17:32.314Z,51.28
2023-02-02T04:19:59.356Z,50.84
2023-02-02T04:22:26.684Z,51.19
2023-02-02T04:24:53.903Z,51.15
2023-02-02T04:27:20.885Z,51.29
2023-02-02T04:29:47.936Z,51.12
2023-02-02T04:32:16.310Z,51.65
2023-02-02T04:34:43.629Z,50.92
2023-02-02T04:37:11.859Z,51.45
2023-02-02T04:39:38.764Z,51.70
2023-02-02T04:42:05.791Z,51.49
2023-02-02T04:44:33.333Z,51.33
2023-02-02T04:47:00.329Z,51.47
2023-02-02T04:49:27.423Z,52.35
2023-02-02T04:51:54.628Z,51.80
2023-02-02T04:54:21.746Z,51.75
2023-02-02T04:56:48.664Z,51.64
2023-02-02T04:59:15.616Z,52.02
2023-02-02T05:01:42.535Z,51.95
2023-02-02T05:04:11.679Z,52.03
2023-02-02T05:06:38.696Z,51.84
2023-02-02T05:09:05.657Z,52.13
2023-02-02T05:11:32.715Z,52.45
2023-02-02T05:13:59.627Z,52.27
2023-02-02T05:16:28.822Z,52.42
2023-02-02T05:18:57.920Z,52.55
2023-02-02T05:21:24.886Z,52.70
2023-02-02T05:23:51.848Z,52.40
2023-02-02T05:26:23.039Z,52.45
2023-02-02T05:28:50.073Z,52.86
2023-02-02T05:31:17.151Z,52.42
2023-02-02T05:33:44.511Z,52.14
2023-02-02T05:36:11.785Z,52.39
2023-02-02T05:38:38.938Z,52.31
2023-02-02T05:41:05.928Z,52.29
2023-02-02T05:43:33.604Z,52.48
2023-02-02T05:46:01.127Z,52.61
2023-02-02T05:48:29.131Z,52.46
2023-02-02T05:51:15.371Z,53.14
2023-02-02T05:53:44.416Z,53.31
2023-02-02T05:56:11.918Z,53.21
2023-02-02T05:58:39.166Z,52.95
2023-02-02T06:01:06.097Z,52.90
2023-02-02T06:03:33.176Z,53.51
2023-02-02T06:06:00.503Z,53.03
2023-02-02T06:08:27.622Z,53.36
2023-02-02T06:10:55.813Z,53.25
2023-02-02T06:13:23.117Z,53.52
2023-02-02T06:15:50.087Z,53.21
2023-02-02T06:18:17.152Z,53.09
2023-02-02T06:20:44.098Z,53.36
2023-02-02T06:23:13.779Z,52.93
2023-02-02T06:25:40.938Z,53.08
2023-02-02T06:28:08.815Z,52.56
2023-02-02T06:30:35.793Z,53.04
2023-02-02T06:33:02.763Z,52.37
2023-02-02T06:35:29.710Z,52.78
2023-02-02T06:37:58.049Z,52.95
2023-02-02T06:40:25.132Z,52.60
2023-02-02T06:42:59.759Z,53.29
2023-02-02T06:45:27.950Z,52.98
2023-02-02T06:47:58.428Z,53.61
2023-02-02T06:50:25.404Z,53.82
2023-02-02T06:52:53.563Z,53.27
2023-02-02T06:55:20.481Z,53.42
2023-02-02T06:57:47.412Z,53.18
2023-02-02T07:00:14.863Z,53.81
2023-02-02T07:02:45.768Z,53.99
2023-02-02T07:05:12.969Z,53.11
2023-02-02T07:07:39.891Z,53.78
2023-02-02T07:10:07.381Z,53.64
2023-02-02T07:12:34.406Z,53.70
2023-02-02T07:15:01.372Z,52.83
2023-02-02T07:17:28.370Z,52.33
2023-02-02T07:19:55.376Z,51.48
2023-02-02T07:22:22.498Z,50.82
2023-02-02T07:24:49.501Z,50.05
2023-02-02T07:27:16.490Z,49.18
2023-02-02T07:29:43.483Z,48.30
2023-02-02T07:32:10.461Z,47.51
2023-02-02T07:34:38.776Z,46.34
2023-02-02T07:37:05.751Z,45.50
2023-02-02T07:39:32.726Z,44.62
2023-02-02T07:41:59.727Z,43.28
2023-02-02T07:44:34.961Z,42.15
2023-02-02T07:47:01.890Z,41.47
2023-02-02T07:49:29.016Z,39.63
2023-02-02T07:51:56.106Z,38.16
2023-02-02T07:54:23.581Z,37.45
2023-02-02T07:56:50.565Z,36.52
2023-02-02T07:59:17.735Z,35.11
2023-02-02T08:01:44.795Z,34.51
2023-02-02T08:04:11.844Z,33.29
2023-02-02T08:06:40.308Z,33.12
2023-02-02T08:09:09.280Z,31.90
2023-02-02T08:11:37.891Z,31.68
2023-02-02T08:14:06.159Z,30.89
2023-02-02T08:16:35.370Z,29.44
2023-02-02T08:19:02.471Z,29.85
2023-02-02T08:21:29.759Z,28.61
2023-02-02T08:23:56.961Z,27.94
2023-02-02T08:26:26.760Z,27.50
2023-02-02T08:28:56.488Z,27.14
2023-02-02T08:31:31.608Z,26.75
2023-02-02T08:33:58.801Z,26.48
2023-02-02T08:36:27.495Z,25.97
2023-02-02T08:38:54.531Z,25.34
2023-02-02T08:41:24.257Z,25.29
2023-02-02T08:43:51.617Z,24.41
2023-02-02T08:46:21.397Z,23.97
2023-02-02T08:48:49.411Z,23.46
2023-02-02T08:51:18.792Z,23.69
2023-02-02T08:53:46.520Z,22.75
2023-02-02T08:56:19.017Z,21.84
2023-02-02T08:59:03.144Z,22.47
2023-02-02T09:01:32.050Z,21.86
2023-02-02T09:04:02.460Z,21.32
2023-02-02T09:06:32.866Z,21.04
2023-02-02T09:09:00.207Z,20.68
2023-02-02T09:11:27.327Z,20.72
2023-02-02T09:13:56.943Z,19.50
2023-02-02T09:16:26.127Z,19.41
2023-02-02T09:18:54.550Z,19.92
2023-02-02T09:21:21.561Z,19.39
2023-02-02T09:23:50.095Z,18.38
2023-02-02T09:26:16.957Z,18.96
2023-02-02T09:28:49.932Z,19.11
2023-02-02T09:31:18.277Z,18.24
2023-02-02T09:33:45.252Z,17.84
2023-02-02T09:36:17.859Z,17.75
2023-02-02T09:38:44.856Z,18.12
2023-02-02T09:41:52.377Z,17.25
2023-02-02T09:44:37.863Z,17.19
2023-02-02T09:47:33.178Z,16.90
2023-02-02T09:50:15.861Z,17.17
2023-02-02T09:53:11.212Z,16.55
2023-02-02T09:55:48.241Z,16.94
2023-02-02T09:58:31.449Z,16.22
2023-02-02T10:01:25.080Z,16.82
2023-02-02T10:04:04.526Z,16.21
2023-02-02T10:06:34.923Z,16.92
2023-02-02T10:09:10.835Z,15.78
2023-02-02T10:11:45.598Z,15.71
2023-02-02T10:14:23.061Z,15.89
2023-02-02T10:16:54.395Z,16.08
2023-02-02T10:19:29.205Z,15.02
2023-02-02T10:22:27.037Z,15.74
2023-02-02T10:24:57.126Z,15.66
2023-02-02T10:27:37.413Z,16.41
2023-02-02T10:30:20.084Z,15.49
2023-02-02T10:32:47.229Z,15.07
2023-02-02T10:35:43.110Z,14.63
2023-02-02T10:38:39.153Z,15.15
2023-02-02T10:41:25.797Z,13.78
2023-02-02T10:44:21.857Z,14.72
2023-02-02T10:46:56.250Z,13.79
2023-02-02T10:49:32.142Z,14.60
2023-02-02T10:52:12.180Z,13.86
2023-02-02T10:54:57.585Z,14.42
2023-02-02T10:57:37.368Z,14.00
2023-02-02T11:00:07.818Z,14.41
2023-02-02T11:02:35.449Z,15.31
2023-02-02T11:05:20.733Z,15.89
2023-02-02T11:07:47.883Z,15.52
2023-02-02T11:10:15.033Z,14.30
2023-02-02T11:12:47.053Z,14.94
2023-02-02T11:15:31.474Z,14.08
2023-02-02T11:18:16.011Z,13.97
2023-02-02T11:20:43.234Z,14.08
2023-02-02T11:23:18.413Z,13.55
2023-02-02T11:25:45.550Z,14.41
2023-02-02T11:28:25.064Z,13.79
2023-02-02T11:30:54.500Z,13.79
2023-02-02T11:33:35.963Z,13.59
2023-02-02T11:36:20.446Z,14.52
2023-02-02T11:38:47.488Z,13.94
2023-02-02T11:41:19.290Z,15.12
2023-02-02T11:43:52.805Z,14.78
2023-02-02T11:46:24.966Z,16.15
2023-02-02T11:49:04.500Z,16.38
2023-02-02T11:51:32.365Z,17.70
2023-02-02T11:54:08.824Z,17.99
2023-02-02T11:56:38.636Z,18.67
2023-02-02T11:59:05.811Z,19.29
2023-02-02T12:01:34.279Z,19.21
2023-02-02T12:04:25.136Z,19.85
2023-02-02T12:06:52.095Z,20.47
2023-02-02T12:09:24.922Z,20.90
2023-02-02T12:12:43.157Z,21.07
2023-02-02T12:15:31.527Z,22.20
2023-02-02T12:18:33.431Z,22.25
2023-02-02T12:21:07.390Z,22.62
2023-02-02T12:24:09.869Z,22.55
2023-02-02T12:26:40.329Z,22.72
2023-02-02T12:29:25.351Z,23.00
2023-02-02T12:32:06.894Z,23.20
2023-02-02T12:34:51.889Z,23.95
2023-02-02T12:37:18.935Z,23.81
2023-02-02T12:40:16.799Z,23.75
2023-02-02T12:43:07.074Z,23.48
2023-02-02T12:45:51.808Z,25.66
2023-02-02T12:48:50.799Z,27.81
2023-02-02T12:51:29.872Z,28.63
2023-02-02T12:54:32.814Z,27.45
2023-02-02T12:56:56.077Z,28.95
2023-02-02T12:59:41.242Z,28.89
2023-02-02T13:02:39.317Z,29.39
2023-02-02T13:05:10.008Z,28.96
2023-02-02T13:07:41.735Z,28.43
2023-02-02T13:10:41.240Z,28.18
2023-02-02T13:13:24.627Z,29.43
2023-02-02T13:15:59.259Z,29.42
2023-02-02T13:18:31.706Z,29.40
2023-02-02T13:21:11.531Z,31.94
2023-02-02T13:23:45.810Z,36.64
2023-02-02T13:26:19.687Z,37.29
2023-02-02T13:29:06.215Z,39.09
2023-02-02T13:31:50.949Z,39.41
2023-02-02T13:34:41.657Z,39.00
2023-02-02T13:37:32.391Z,40.30
2023-02-02T13:40:19.762Z,39.31
2023-02-02T13:42:55.687Z,39.57
2023-02-02T13:45:51.781Z,40.62
2023-02-02T13:48:36.685Z,40.57
2023-02-02T13:51:28.570Z,40.28
2023-02-02T13:54:16.076Z,39.57
2023-02-02T13:56:52.495Z,39.58
2023-02-02T13:59:29.511Z,39.19
2023-02-02T14:01:59.058Z,37.83
2023-02-02T14:04:30.576Z,37.71
2023-02-02T14:09:38.547Z,38.75
2023-02-02T14:12:10.494Z,38.44
2023-02-02T14:14:40.071Z,39.24
2023-02-02T14:17:13.206Z,39.20
2023-02-02T14:19:42.182Z,38.85
2023-02-02T14:22:09.282Z,38.64
2023-02-02T14:24:36.161Z,39.22
2023-02-02T14:27:25.705Z,40.52
2023-02-02T14:29:52.989Z,40.82
2023-02-02T14:32:28.834Z,42.05
2023-02-02T14:35:14.490Z,40.97
2023-02-02T14:37:47.294Z,40.55
2023-02-02T14:40:39.432Z,41.24
2023-02-02T14:43:46.267Z,43.82
2023-02-02T14:46:13.300Z,43.45
2023-02-02T14:48:43.127Z,44.88
2023-02-02T14:51:28.499Z,45.30
2023-02-02T14:54:01.243Z,45.92
2023-02-02T14:56:59.543Z,46.81
2023-02-02T14:59:36.496Z,46.56
2023-02-02T15:02:17.775Z,47.41
2023-02-02T15:04:47.975Z,47.58
2023-02-02T15:07:51.525Z,48.38
2023-02-02T15:10:53.491Z,49.11
2023-02-02T15:13:37.880Z,49.41
2023-02-02T15:16:20.821Z,49.23
2023-02-02T15:18:57.719Z,48.40
2023-02-02T15:21:24.915Z,48.30
2023-02-02T15:23:52.049Z,50.12
2023-02-02T15:26:25.049Z,48.92
2023-02-02T15:28:58.697Z,48.14
2023-02-02T15:31:29.540Z,47.74
2023-02-02T15:34:04.934Z,47.50
2023-02-02T15:36:39.289Z,47.17
2023-02-02T15:39:51.559Z,46.60
2023-02-02T15:42:48.010Z,46.72
2023-02-02T15:45:45.254Z,47.61
2023-02-02T15:48:25.539Z,46.45
2023-02-02T15:50:57.055Z,46.31
2023-02-02T15:53:35.295Z,45.79
2023-02-02T15:56:24.455Z,47.41
2023-02-02T15:58:54.678Z,46.51
2023-02-02T16:01:27.018Z,47.29
2023-02-02T16:04:16.031Z,46.86
2023-02-02T16:06:51.953Z,45.24
2023-02-02T16:09:33.670Z,45.23
2023-02-02T16:12:02.377Z,45.79
2023-02-02T16:14:30.610Z,45.39
2023-02-02T16:17:11.219Z,45.24
2023-02-02T16:19:43.259Z,46.42
2023-02-02T16:22:22.068Z,47.04
2023-02-02T16:24:54.090Z,45.14
2023-02-02T16:27:24.567Z,45.21
2023-02-02T16:29:51.671Z,47.24
2023-02-02T16:32:39.357Z,48.29
2023-02-02T16:35:27.710Z,46.11
2023-02-02T16:38:31.876Z,49.10
2023-02-02T16:41:07.508Z,51.74
2023-02-02T16:43:36.865Z,52.38
2023-02-02T16:46:16.561Z,51.99
2023-02-02T16:48:57.313Z,54.09
2023-02-02T16:51:29.347Z,53.73
2023-02-02T16:54:01.052Z,54.61
2023-02-02T16:56:41.429Z,55.44
2023-02-02T16:59:25.489Z,56.23
2023-02-02T17:01:56.406Z,56.14
2023-02-02T17:04:30.960Z,56.34
2023-02-02T17:07:07.079Z,57.01
2023-02-02T17:09:37.567Z,55.32
2023-02-02T17:12:32.014Z,56.18
2023-02-02T17:15:06.179Z,56.00
2023-02-02T17:17:33.194Z,56.21
2023-02-02T17:20:00.142Z,57.06
2023-02-02T17:22:28.085Z,57.14
2023-02-02T17:24:55.032Z,56.91
2023-02-02T17:27:34.223Z,57.78
2023-02-02T17:30:02.333Z,57.57
2023-02-02T17:32:29.516Z,57.40
2023-02-02T17:34:59.314Z,56.57
2023-02-02T17:37:26.252Z,55.98
2023-02-02T17:39:53.610Z,57.55
2023-02-02T17:42:25.413Z,57.29
2023-02-02T17:44:52.467Z,57.59
2023-02-02T17:47:19.923Z,56.65
2023-02-02T17:49:46.870Z,57.03
2023-02-02T17:52:14.008Z,57.72
2023-02-02T17:54:41.037Z,58.71
2023-02-02T17:57:07.996Z,57.96
2023-02-02T17:59:35.027Z,56.36
2023-02-02T18:02:02.238Z,56.71
2023-02-02T18:04:29.559Z,57.95
2023-02-02T18:06:56.461Z,57.45
2023-02-02T18:09:23.381Z,56.13
2023-02-02T18:11:50.318Z,56.67
2023-02-02T18:14:17.309Z,56.46
2023-02-02T18:16:44.165Z,55.62
2023-02-02T18:19:11.171Z,55.64
2023-02-02T18:21:38.087Z,55.77
2023-02-02T18:24:05.163Z,55.00
2023-02-02T18:26:35.094Z,54.81
2023-02-02T18:29:02.090Z,54.42
2023-02-02T18:31:29.155Z,55.04
2023-02-02T18:33:56.237Z,55.19
2023-02-02T18:36:23.820Z,55.24
2023-02-02T18:38:51.481Z,54.54
2023-02-02T18:41:21.657Z,54.89
2023-02-02T18:43:48.756Z,54.55
2023-02-02T18:46:16.802Z,55.52
2023-02-02T18:48:44.046Z,55.25
2023-02-02T18:51:16.152Z,54.53
2023-02-02T18:53:44.052Z,54.36
2023-02-02T18:56:13.007Z,53.67
2023-02-02T18:58:40.625Z,53.15
2023-02-02T19:01:12.968Z,54.52
2023-02-02T19:03:40.995Z,54.34
2023-02-02T19:06:27.816Z,52.57
2023-02-02T19:08:55.379Z,53.06
2023-02-02T19:11:26.709Z,53.65
2023-02-02T19:13:54.029Z,53.71
2023-02-02T19:16:29.850Z,53.57
2023-02-02T19:19:00.782Z,54.76
2023-02-02T19:21:30.572Z,54.20
2023-02-02T19:23:57.534Z,54.01
2023-02-02T19:26:26.404Z,53.72
2023-02-02T19:28:56.258Z,53.48
2023-02-02T19:31:23.324Z,53.45
2023-02-02T19:33:52.216Z,53.63
2023-02-02T19:36:27.905Z,54.39
2023-02-02T19:39:33.677Z,55.66
2023-02-02T19:42:02.055Z,54.16
2023-02-02T19:44:34.160Z,54.40
2023-02-02T19:47:02.881Z,55.09
2023-02-02T19:49:34.937Z,55.45
2023-02-02T19:52:04.147Z,54.26
2023-02-02T19:54:40.528Z,55.62
2023-02-02T19:57:13.412Z,56.24
2023-02-02T19:59:42.296Z,55.91
2023-02-02T20:02:36.965Z,55.82
2023-02-02T20:05:17.419Z,55.68
2023-02-02T20:07:44.417Z,55.27
2023-02-02T20:10:24.963Z,54.90
2023-02-02T20:12:53.404Z,55.53
2023-02-02T20:15:22.355Z,55.77
2023-02-02T20:17:49.407Z,55.84
2023-02-02T20:20:29.164Z,55.49
2023-02-02T20:22:57.815Z,56.62
2023-02-02T20:25:25.148Z,56.06
2023-02-02T20:27:53.844Z,55.93
2023-02-02T20:30:30.966Z,55.98
2023-02-02T20:33:01.802Z,56.81
2023-02-02T20:35:37.219Z,56.21
2023-02-02T20:38:22.037Z,56.18
2023-02-02T20:40:49.071Z,56.00
2023-02-02T20:43:16.081Z,55.42
2023-02-02T20:45:43.455Z,55.62
2023-02-02T20:48:12.418Z,55.15
2023-02-02T20:50:40.331Z,55.60
2023-02-02T20:53:11.111Z,55.05
2023-02-02T20:55:38.304Z,54.69
2023-02-02T20:58:05.491Z,54.22
2023-02-02T21:00:33.415Z,54.13
2023-02-02T21:03:00.279Z,53.84
2023-02-02T21:05:27.219Z,53.72
2023-02-02T21:07:57.164Z,53.79
2023-02-02T21:10:25.970Z,53.36
2023-02-02T21:12:53.188Z,53.14
2023-02-02T21:15:20.199Z,52.68
2023-02-02T21:17:47.135Z,52.46
2023-02-02T21:20:15.002Z,51.72
2023-02-02T21:22:42.165Z,51.09
2023-02-02T21:25:09.915Z,50.62
2023-02-02T21:27:37.708Z,50.12
2023-02-02T21:30:05.482Z,50.16
2023-02-02T21:32:33.713Z,49.75
2023-02-02T21:35:01.574Z,49.40
2023-02-02T21:37:28.586Z,49.47
2023-02-02T21:39:59.686Z,49.35
2023-02-02T21:42:27.828Z,49.20
2023-02-02T21:44:58.153Z,48.82
2023-02-02T21:47:30.053Z,48.89
2023-02-02T21:50:02.836Z,48.94
2023-02-02T21:52:33.996Z,48.54
2023-02-02T21:55:27.220Z,48.29
2023-02-02T21:57:58.926Z,48.40
2023-02-02T22:00:31.063Z,48.40
2023-02-02T22:02:59.108Z,48.29
2023-02-02T22:05:36.859Z,48.36
2023-02-02T22:08:20.823Z,47.94
2023-02-02T22:10:48.005Z,48.44
2023-02-02T22:13:23.843Z,48.13
2023-02-02T22:15:52.712Z,48.35
2023-02-02T22:18:23.075Z,48.14
2023-02-02T22:20:51.836Z,47.95
2023-02-02T22:23:21.208Z,48.15
2023-02-02T22:25:50.408Z,48.04
2023-02-02T22:28:36.758Z,47.87
2023-02-02T22:31:05.084Z,47.83
2023-02-02T22:33:32.100Z,48.08
2023-02-02T22:35:59.372Z,47.87
2023-02-02T22:38:26.271Z,48.09
2023-02-02T22:40:53.635Z,48.03
2023-02-02T22:43:21.730Z,47.92
2023-02-02T22:45:49.210Z,47.90
2023-02-02T22:48:16.547Z,47.36
2023-02-02T22:50:43.720Z,47.82
2023-02-02T22:53:10.971Z,47.94
2023-02-02T22:55:38.348Z,47.84
2023-02-02T22:58:05.495Z,47.55
2023-02-02T23:00:33.435Z,47.77
2023-02-02T23:03:01.091Z,48.21
2023-02-02T23:05:28.470Z,48.04
2023-02-02T23:07:56.411Z,47.99
2023-02-02T23:10:27.862Z,48.17
2023-02-02T23:12:59.165Z,48.29
2023-02-02T23:15:26.369Z,48.51
2023-02-02T23:17:53.645Z,48.48
2023-02-02T23:20:20.911Z,48.35
2023-02-02T23:22:47.814Z,48.40
2023-02-02T23:25:16.073Z,48.45
2023-02-02T23:27:43.107Z,48.29
2023-02-02T23:30:12.960Z,48.55
2023-02-02T23:32:40.356Z,48.33
2023-02-02T23:35:10.587Z,48.33
2023-02-02T23:37:38.378Z,48.52
2023-02-02T23:40:06.753Z,48.52
2023-02-02T23:42:34.143Z,48.40
2023-02-02T23:45:01.126Z,48.76
2023-02-02T23:47:28.195Z,48.65
2023-02-02T23:49:55.544Z,49.08
2023-02-02T23:52:22.640Z,48.60
2023-02-02T23:54:49.546Z,48.82
2023-02-02T23:57:16.710Z,48.67
2023-02-02T23:59:43.800Z,48.95
